M I D A S
Marine Information and Data Acquisition System
Tripno 1337 of the Zeeleeuw from 2007-07-04 06:37:35 to 2007-07-04 15:13:46
Back to CruiseResearch ActivitiesStationsMapUnderway DataData graphs

EquipmentUnitsComments
TimeDGPSUTC
LatitudeDGPSDM.mWGS84
LongitudeDGPSDM.mWGS84
SpeedMeteo Stationm/sRelative wind speed
DirectionMeteo StationdegRelative wind direction
TemperatureMeteo Stationdeg CelciusAir temperature
PressureMeteo StationPaAtmospheric pressure
HumidityMeteo Station%Relative humidity
Missing or incorrect values are displayed as -999
Metereological data collected by the RV Zeeleeuw from 2007-07-04 06:35:43 to 2007-07-04 15:23:39
Time Latitude Longitude Speed Direction Temperature Pressure Humidity
2007-07-04 06:36 51°13.598 2°56.095 -999 -999 -999 -999 -999
2007-07-04 06:37 51°13.598 2°56.096 -999 -999 -999 -999 -999
2007-07-04 06:38 51°13.596 2°56.094 -999 -999 -999 -999 -999
2007-07-04 06:39 51°13.597 2°56.095 -999 -999 -999 -999 -999
2007-07-04 06:40 51°13.597 2°56.095 -999 -999 -999 -999 -999
2007-07-04 06:41 51°13.598 2°56.096 -999 -999 -999 -999 -999
2007-07-04 06:42 51°13.597 2°56.096 -999 -999 -999 -999 -999
2007-07-04 06:43 51°13.597 2°56.096 -999 -999 -999 -999 -999
2007-07-04 06:44 51°13.597 2°56.096 -999 -999 -999 -999 -999
2007-07-04 06:45 51°13.597 2°56.095 -999 -999 -999 -999 -999
2007-07-04 06:46 51°13.616 2°56.037 -999 -999 -999 -999 -999
2007-07-04 06:47 51°13.645 2°55.938 -999 -999 -999 -999 -999
2007-07-04 06:48 51°13.672 2°55.84 -999 -999 -999 -999 -999
2007-07-04 06:49 51°13.68 2°55.762 -999 -999 -999 -999 -999
2007-07-04 06:50 51°13.682 2°55.737 -999 -999 -999 -999 -999
2007-07-04 06:51 51°13.691 2°55.728 -999 -999 -999 -999 -999
2007-07-04 06:52 51°13.771 2°55.669 -999 -999 -999 -999 -999
2007-07-04 06:53 51°13.912 2°55.57 -999 -999 -999 -999 -999
2007-07-04 06:54 51°14.052 2°55.474 -999 -999 -999 -999 -999
2007-07-04 06:55 51°14.176 2°55.371 -999 -999 -999 -999 -999
2007-07-04 06:56 51°14.297 2°55.198 -999 -999 -999 -999 -999
2007-07-04 06:57 51°14.409 2°54.973 -999 -999 -999 -999 -999
2007-07-04 06:58 51°14.449 2°54.665 -999 -999 -999 -999 -999
2007-07-04 06:59 51°14.384 2°54.367 -999 -999 -999 -999 -999
2007-07-04 07:00 51°14.281 2°54.094 -999 -999 -999 -999 -999
2007-07-04 07:01 51°14.175 2°53.803 -999 -999 -999 -999 -999
2007-07-04 07:02 51°14.076 2°53.514 -999 -999 -999 -999 -999
2007-07-04 07:03 51°13.975 2°53.212 -999 -999 -999 -999 -999
2007-07-04 07:04 51°13.873 2°52.915 -999 -999 -999 -999 -999
2007-07-04 07:05 51°13.771 2°52.618 -999 -999 -999 -999 -999
2007-07-04 07:06 51°13.669 2°52.32 -999 -999 -999 -999 -999
2007-07-04 07:07 51°13.566 2°52.022 -999 -999 -999 -999 -999
2007-07-04 07:08 51°13.464 2°51.722 -999 -999 -999 -999 -999
2007-07-04 07:09 51°13.362 2°51.418 -999 -999 -999 -999 -999
2007-07-04 07:10 51°13.259 2°51.114 -999 -999 -999 -999 -999
2007-07-04 07:11 51°13.155 2°50.811 -999 -999 -999 -999 -999
2007-07-04 07:12 51°13.052 2°50.507 -999 -999 -999 -999 -999
2007-07-04 07:13 51°12.949 2°50.204 -999 -999 -999 -999 -999
2007-07-04 07:14 51°12.845 2°49.897 -999 -999 -999 -999 -999
2007-07-04 07:15 51°12.744 2°49.594 -999 -999 -999 -999 -999
2007-07-04 07:16 51°12.638 2°49.282 -999 -999 -999 -999 -999
2007-07-04 07:17 51°12.533 2°48.977 -999 -999 -999 -999 -999
2007-07-04 07:18 51°12.429 2°48.675 -999 -999 -999 -999 -999
2007-07-04 07:19 51°12.325 2°48.374 -999 -999 -999 -999 -999
2007-07-04 07:20 51°12.222 2°48.066 -999 -999 -999 -999 -999
2007-07-04 07:21 51°12.119 2°47.762 -999 -999 -999 -999 -999
2007-07-04 07:22 51°12.017 2°47.46 -999 -999 -999 -999 -999
2007-07-04 07:23 51°11.917 2°47.144 -999 -999 -999 -999 -999
2007-07-04 07:24 51°11.837 2°46.818 -999 -999 -999 -999 -999
2007-07-04 07:25 51°11.758 2°46.491 -999 -999 -999 -999 -999
2007-07-04 07:26 51°11.679 2°46.166 -999 -999 -999 -999 -999
2007-07-04 07:27 51°11.606 2°45.834 -999 -999 -999 -999 -999
2007-07-04 07:28 51°11.535 2°45.501 -999 -999 -999 -999 -999
2007-07-04 07:29 51°11.465 2°45.169 -999 -999 -999 -999 -999
2007-07-04 07:30 51°11.393 2°44.836 -999 -999 -999 -999 -999
2007-07-04 07:31 51°11.324 2°44.499 -999 -999 -999 -999 -999
2007-07-04 07:32 51°11.254 2°44.164 -999 -999 -999 -999 -999
2007-07-04 07:33 51°11.184 2°43.83 -999 -999 -999 -999 -999
2007-07-04 07:34 51°11.116 2°43.496 -999 -999 -999 -999 -999
2007-07-04 07:35 51°11.054 2°43.156 -999 -999 -999 -999 -999
2007-07-04 07:36 51°10.998 2°42.813 -999 -999 -999 -999 -999
2007-07-04 07:37 51°10.932 2°42.477 -999 -999 -999 -999 -999
2007-07-04 07:38 51°10.85 2°42.148 -999 -999 -999 -999 -999
2007-07-04 07:39 51°10.789 2°41.815 -999 -999 -999 -999 -999
2007-07-04 07:40 51°10.933 2°41.614 -999 -999 -999 -999 -999
2007-07-04 07:41 51°11.062 2°41.724 -999 -999 -999 -999 -999
2007-07-04 07:42 51°11.096 2°41.96 -999 -999 -999 -999 -999
2007-07-04 07:43 51°11.117 2°42.099 -999 -999 -999 -999 -999
2007-07-04 07:44 51°11.129 2°42.115 -999 -999 -999 -999 -999
2007-07-04 07:45 51°11.135 2°42.115 -999 -999 -999 -999 -999
2007-07-04 07:46 51°11.136 2°42.111 -999 -999 -999 -999 -999
2007-07-04 07:47 51°11.134 2°42.108 -999 -999 -999 -999 -999
2007-07-04 07:48 51°11.132 2°42.109 -999 -999 -999 -999 -999
2007-07-04 07:49 51°11.129 2°42.109 -999 -999 -999 -999 -999
2007-07-04 07:50 51°11.124 2°42.109 -999 -999 -999 -999 -999
2007-07-04 07:51 51°11.118 2°42.109 -999 -999 -999 -999 -999
2007-07-04 07:52 51°11.111 2°42.108 -999 -999 -999 -999 -999
2007-07-04 07:53 51°11.104 2°42.108 -999 -999 -999 -999 -999
2007-07-04 07:54 51°11.098 2°42.108 -999 -999 -999 -999 -999
2007-07-04 07:55 51°11.091 2°42.108 -999 -999 -999 -999 -999
2007-07-04 07:56 51°11.085 2°42.109 -999 -999 -999 -999 -999
2007-07-04 07:57 51°11.079 2°42.109 -999 -999 -999 -999 -999
2007-07-04 07:58 51°11.073 2°42.108 -999 -999 -999 -999 -999
2007-07-04 07:59 51°11.067 2°42.106 -999 -999 -999 -999 -999
2007-07-04 08:00 51°11.061 2°42.107 -999 -999 -999 -999 -999
2007-07-04 08:01 51°11.056 2°42.106 -999 -999 -999 -999 -999
2007-07-04 08:02 51°11.049 2°42.104 -999 -999 -999 -999 -999
2007-07-04 08:03 51°11.041 2°42.103 -999 -999 -999 -999 -999
2007-07-04 08:04 51°11.033 2°42.102 -999 -999 -999 -999 -999
2007-07-04 08:05 51°11.025 2°42.101 -999 -999 -999 -999 -999
2007-07-04 08:06 51°11.018 2°42.1 -999 -999 -999 -999 -999
2007-07-04 08:07 51°11.011 2°42.099 -999 -999 -999 -999 -999
2007-07-04 08:08 51°11.003 2°42.098 -999 -999 -999 -999 -999
2007-07-04 08:09 51°11.002 2°42.098 -999 -999 -999 -999 -999
2007-07-04 08:10 51°11.044 2°42.068 -999 -999 -999 -999 -999
2007-07-04 08:11 51°11.102 2°42.026 -999 -999 -999 -999 -999
2007-07-04 08:12 51°11.124 2°42.007 -999 -999 -999 -999 -999
2007-07-04 08:13 51°11.129 2°42 -999 -999 -999 -999 -999
2007-07-04 08:14 51°11.129 2°41.998 -999 -999 -999 -999 -999
2007-07-04 08:15 51°11.123 2°42 -999 -999 -999 -999 -999
2007-07-04 08:16 51°11.114 2°41.999 -999 -999 -999 -999 -999
2007-07-04 08:17 51°11.105 2°41.997 -999 -999 -999 -999 -999
2007-07-04 08:18 51°11.096 2°41.995 -999 -999 -999 -999 -999
2007-07-04 08:19 51°11.086 2°41.991 -999 -999 -999 -999 -999
2007-07-04 08:20 51°11.078 2°41.989 -999 -999 -999 -999 -999
2007-07-04 08:21 51°11.071 2°41.988 -999 -999 -999 -999 -999
2007-07-04 08:22 51°11.065 2°41.986 -999 -999 -999 -999 -999
2007-07-04 08:23 51°11.058 2°41.985 -999 -999 -999 -999 -999
2007-07-04 08:24 51°11.049 2°41.983 -999 -999 -999 -999 -999
2007-07-04 08:25 51°11.04 2°41.98 -999 -999 -999 -999 -999
2007-07-04 08:26 51°11.032 2°41.978 -999 -999 -999 -999 -999
2007-07-04 08:27 51°11.024 2°41.977 -999 -999 -999 -999 -999
2007-07-04 08:28 51°11.016 2°41.975 -999 -999 -999 -999 -999
2007-07-04 08:29 51°11.009 2°41.974 -999 -999 -999 -999 -999
2007-07-04 08:30 51°11.001 2°41.973 -999 -999 -999 -999 -999
2007-07-04 08:31 51°10.993 2°41.971 -999 -999 -999 -999 -999
2007-07-04 08:32 51°10.986 2°41.968 -999 -999 -999 -999 -999
2007-07-04 08:33 51°10.979 2°41.967 -999 -999 -999 -999 -999
2007-07-04 08:34 51°10.971 2°41.966 -999 -999 -999 -999 -999
2007-07-04 08:35 51°10.964 2°41.964 -999 -999 -999 -999 -999
2007-07-04 08:36 51°10.965 2°41.966 -999 -999 -999 -999 -999
2007-07-04 08:37 51°11.003 2°41.97 -999 -999 -999 -999 -999
2007-07-04 08:38 51°11.052 2°42.008 -999 -999 -999 -999 -999
2007-07-04 08:39 51°11.113 2°42.047 -999 -999 -999 -999 -999
2007-07-04 08:40 51°11.178 2°42.065 -999 -999 -999 -999 -999
2007-07-04 08:41 51°11.231 2°42.067 -999 -999 -999 -999 -999
2007-07-04 08:42 51°11.272 2°42.069 -999 -999 -999 -999 -999
2007-07-04 08:43 51°11.312 2°42.072 -999 -999 -999 -999 -999
2007-07-04 08:44 51°11.35 2°42.075 -999 -999 -999 -999 -999
2007-07-04 08:45 51°11.404 2°42.086 -999 -999 -999 -999 -999
2007-07-04 08:46 51°11.501 2°42.232 -999 -999 -999 -999 -999
2007-07-04 08:47 51°11.639 2°42.419 -999 -999 -999 -999 -999
2007-07-04 08:48 51°11.788 2°42.627 -999 -999 -999 -999 -999
2007-07-04 08:49 51°11.937 2°42.838 -999 -999 -999 -999 -999
2007-07-04 08:50 51°12.079 2°43.061 -999 -999 -999 -999 -999
2007-07-04 08:51 51°12.218 2°43.286 -999 -999 -999 -999 -999
2007-07-04 08:52 51°12.355 2°43.517 -999 -999 -999 -999 -999
2007-07-04 08:53 51°12.495 2°43.741 -999 -999 -999 -999 -999
2007-07-04 08:54 51°12.635 2°43.965 -999 -999 -999 -999 -999
2007-07-04 08:55 51°12.775 2°44.184 -999 -999 -999 -999 -999
2007-07-04 08:56 51°12.912 2°44.407 -999 -999 -999 -999 -999
2007-07-04 08:57 51°13.049 2°44.631 -999 -999 -999 -999 -999
2007-07-04 08:58 51°13.187 2°44.855 -999 -999 -999 -999 -999
2007-07-04 08:59 51°13.328 2°45.077 -999 -999 -999 -999 -999
2007-07-04 09:00 51°13.467 2°45.3 -999 -999 -999 -999 -999
2007-07-04 09:01 51°13.607 2°45.517 -999 -999 -999 -999 -999
2007-07-04 09:02 51°13.787 2°45.621 -999 -999 -999 -999 -999
2007-07-04 09:03 51°13.987 2°45.677 -999 -999 -999 -999 -999
2007-07-04 09:04 51°14.188 2°45.687 -999 -999 -999 -999 -999
2007-07-04 09:05 51°14.389 2°45.686 -999 -999 -999 -999 -999
2007-07-04 09:06 51°14.562 2°45.569 -999 -999 -999 -999 -999
2007-07-04 09:07 51°14.695 2°45.324 -999 -999 -999 -999 -999
2007-07-04 09:08 51°14.852 2°45.108 -999 -999 -999 -999 -999
2007-07-04 09:09 51°15.015 2°44.912 -999 -999 -999 -999 -999
2007-07-04 09:10 51°15.178 2°44.711 -999 -999 -999 -999 -999
2007-07-04 09:11 51°15.344 2°44.511 -999 -999 -999 -999 -999
2007-07-04 09:12 51°15.507 2°44.324 -999 -999 -999 -999 -999
2007-07-04 09:13 51°15.67 2°44.135 -999 -999 -999 -999 -999
2007-07-04 09:14 51°15.831 2°43.955 -999 -999 -999 -999 -999
2007-07-04 09:15 51°15.993 2°43.772 -999 -999 -999 -999 -999
2007-07-04 09:16 51°16.152 2°43.591 -999 -999 -999 -999 -999
2007-07-04 09:17 51°16.311 2°43.406 -999 -999 -999 -999 -999
2007-07-04 09:18 51°16.474 2°43.22 -999 -999 -999 -999 -999
2007-07-04 09:19 51°16.638 2°43.039 -999 -999 -999 -999 -999
2007-07-04 09:20 51°16.8 2°42.851 -999 -999 -999 -999 -999
2007-07-04 09:21 51°16.965 2°42.674 -999 -999 -999 -999 -999
2007-07-04 09:22 51°17.133 2°42.489 -999 -999 -999 -999 -999
2007-07-04 09:23 51°17.305 2°42.3 -999 -999 -999 -999 -999
2007-07-04 09:24 51°17.453 2°42.133 -999 -999 -999 -999 -999
2007-07-04 09:25 51°17.514 2°42.02 -999 -999 -999 -999 -999
2007-07-04 09:26 51°17.506 2°41.938 -999 -999 -999 -999 -999
2007-07-04 09:27 51°17.482 2°41.917 -999 -999 -999 -999 -999
2007-07-04 09:28 51°17.465 2°41.917 -999 -999 -999 -999 -999
2007-07-04 09:29 51°17.451 2°41.918 -999 -999 -999 -999 -999
2007-07-04 09:30 51°17.417 2°41.92 -999 -999 -999 -999 -999
2007-07-04 09:31 51°17.36 2°41.871 -999 -999 -999 -999 -999
2007-07-04 09:32 51°17.324 2°41.774 -999 -999 -999 -999 -999
2007-07-04 09:33 51°17.291 2°41.666 -999 -999 -999 -999 -999
2007-07-04 09:34 51°17.265 2°41.584 -999 -999 -999 -999 -999
2007-07-04 09:35 51°17.259 2°41.493 -999 -999 -999 -999 -999
2007-07-04 09:36 51°17.262 2°41.383 -999 -999 -999 -999 -999
2007-07-04 09:37 51°17.251 2°41.295 -999 -999 -999 -999 -999
2007-07-04 09:38 51°17.236 2°41.209 -999 -999 -999 -999 -999
2007-07-04 09:39 51°17.199 2°41.109 -999 -999 -999 -999 -999
2007-07-04 09:40 51°17.168 2°41.03 -999 -999 -999 -999 -999
2007-07-04 09:41 51°17.141 2°40.957 -999 -999 -999 -999 -999
2007-07-04 09:42 51°17.133 2°40.883 -999 -999 -999 -999 -999
2007-07-04 09:43 51°17.17 2°40.818 -999 -999 -999 -999 -999
2007-07-04 09:44 51°17.229 2°40.812 -999 -999 -999 -999 -999
2007-07-04 09:45 51°17.279 2°40.872 -999 -999 -999 -999 -999
2007-07-04 09:46 51°17.331 2°40.914 -999 -999 -999 -999 -999
2007-07-04 09:47 51°17.374 2°40.975 -999 -999 -999 -999 -999
2007-07-04 09:48 51°17.411 2°41.048 -999 -999 -999 -999 -999
2007-07-04 09:49 51°17.454 2°41.102 -999 -999 -999 -999 -999
2007-07-04 09:50 51°17.498 2°41.158 -999 -999 -999 -999 -999
2007-07-04 09:51 51°17.52 2°41.245 -999 -999 -999 -999 -999
2007-07-04 09:52 51°17.542 2°41.327 -999 -999 -999 -999 -999
2007-07-04 09:53 51°17.574 2°41.383 -999 -999 -999 -999 -999
2007-07-04 09:54 51°17.612 2°41.428 -999 -999 -999 -999 -999
2007-07-04 09:55 51°17.654 2°41.473 -999 -999 -999 -999 -999
2007-07-04 09:56 51°17.695 2°41.526 -999 -999 -999 -999 -999
2007-07-04 09:57 51°17.735 2°41.57 -999 -999 -999 -999 -999
2007-07-04 09:58 51°17.78 2°41.594 -999 -999 -999 -999 -999
2007-07-04 09:59 51°17.828 2°41.608 -999 -999 -999 -999 -999
2007-07-04 10:00 51°17.875 2°41.635 -999 -999 -999 -999 -999
2007-07-04 10:01 51°17.918 2°41.686 -999 -999 -999 -999 -999
2007-07-04 10:02 51°17.968 2°41.715 -999 -999 -999 -999 -999
2007-07-04 10:03 51°18.019 2°41.75 -999 -999 -999 -999 -999
2007-07-04 10:04 51°18.061 2°41.81 -999 -999 -999 -999 -999
2007-07-04 10:05 51°18.109 2°41.849 -999 -999 -999 -999 -999
2007-07-04 10:06 51°18.159 2°41.882 -999 -999 -999 -999 -999
2007-07-04 10:07 51°18.208 2°41.928 -999 -999 -999 -999 -999
2007-07-04 10:08 51°18.252 2°41.984 -999 -999 -999 -999 -999
2007-07-04 10:09 51°18.298 2°42.029 -999 -999 -999 -999 -999
2007-07-04 10:10 51°18.349 2°42.065 -999 -999 -999 -999 -999
2007-07-04 10:11 51°18.399 2°42.108 -999 -999 -999 -999 -999
2007-07-04 10:12 51°18.441 2°42.174 -999 -999 -999 -999 -999
2007-07-04 10:13 51°18.485 2°42.229 -999 -999 -999 -999 -999
2007-07-04 10:14 51°18.528 2°42.283 -999 -999 -999 -999 -999
2007-07-04 10:15 51°18.576 2°42.322 -999 -999 -999 -999 -999
2007-07-04 10:16 51°18.627 2°42.338 -999 -999 -999 -999 -999
2007-07-04 10:17 51°18.68 2°42.342 -999 -999 -999 -999 -999
2007-07-04 10:18 51°18.72 2°42.39 -999 -999 -999 -999 -999
2007-07-04 10:19 51°18.747 2°42.442 -999 -999 -999 -999 -999
2007-07-04 10:20 51°18.748 2°42.511 -999 -999 -999 -999 -999
2007-07-04 10:21 51°18.72 2°42.563 -999 -999 -999 -999 -999
2007-07-04 10:22 51°18.681 2°42.577 -999 -999 -999 -999 -999
2007-07-04 10:23 51°18.648 2°42.574 -999 -999 -999 -999 -999
2007-07-04 10:24 51°18.62 2°42.566 -999 -999 -999 -999 -999
2007-07-04 10:25 51°18.595 2°42.557 -999 -999 -999 -999 -999
2007-07-04 10:26 51°18.574 2°42.552 -999 -999 -999 -999 -999
2007-07-04 10:27 51°18.555 2°42.549 -999 -999 -999 -999 -999
2007-07-04 10:28 51°18.527 2°42.547 -999 -999 -999 -999 -999
2007-07-04 10:29 51°18.426 2°42.538 -999 -999 -999 -999 -999
2007-07-04 10:30 51°18.258 2°42.453 -999 -999 -999 -999 -999
2007-07-04 10:31 51°18.078 2°42.36 -999 -999 -999 -999 -999
2007-07-04 10:32 51°17.913 2°42.219 -999 -999 -999 -999 -999
2007-07-04 10:33 51°17.765 2°42.034 -999 -999 -999 -999 -999
2007-07-04 10:34 51°17.602 2°41.827 -999 -999 -999 -999 -999
2007-07-04 10:35 51°17.434 2°41.623 -999 -999 -999 -999 -999
2007-07-04 10:36 51°17.265 2°41.418 -999 -999 -999 -999 -999
2007-07-04 10:37 51°17.095 2°41.214 -999 -999 -999 -999 -999
2007-07-04 10:38 51°16.923 2°41.01 -999 -999 -999 -999 -999
2007-07-04 10:39 51°16.752 2°40.806 -999 -999 -999 -999 -999
2007-07-04 10:40 51°16.58 2°40.604 -999 -999 -999 -999 -999
2007-07-04 10:41 51°16.408 2°40.405 -999 -999 -999 -999 -999
2007-07-04 10:42 51°16.237 2°40.206 -999 -999 -999 -999 -999
2007-07-04 10:43 51°16.117 2°40.068 -999 -999 -999 -999 -999
2007-07-04 10:44 51°16.036 2°39.988 -999 -999 -999 -999 -999
2007-07-04 10:45 51°15.966 2°39.923 -999 -999 -999 -999 -999
2007-07-04 10:46 51°15.861 2°39.812 -999 -999 -999 -999 -999
2007-07-04 10:47 51°15.735 2°39.676 -999 -999 -999 -999 -999
2007-07-04 10:48 51°15.609 2°39.54 -999 -999 -999 -999 -999
2007-07-04 10:49 51°15.518 2°39.521 -999 -999 -999 -999 -999
2007-07-04 10:50 51°15.486 2°39.592 -999 -999 -999 -999 -999
2007-07-04 10:51 51°15.526 2°39.658 -999 -999 -999 -999 -999
2007-07-04 10:52 51°15.602 2°39.785 -999 -999 -999 -999 -999
2007-07-04 10:53 51°15.678 2°39.92 -999 -999 -999 -999 -999
2007-07-04 10:54 51°15.691 2°40.013 -999 -999 -999 -999 -999
2007-07-04 10:55 51°15.691 2°40.04 -999 -999 -999 -999 -999
2007-07-04 10:56 51°15.687 2°40.049 -999 -999 -999 -999 -999
2007-07-04 10:57 51°15.681 2°40.049 -999 -999 -999 -999 -999
2007-07-04 10:58 51°15.669 2°40.046 -999 -999 -999 -999 -999
2007-07-04 10:59 51°15.655 2°40.044 -999 -999 -999 -999 -999
2007-07-04 11:00 51°15.639 2°40.044 -999 -999 -999 -999 -999
2007-07-04 11:01 51°15.621 2°40.042 -999 -999 -999 -999 -999
2007-07-04 11:02 51°15.604 2°40.043 -999 -999 -999 -999 -999
2007-07-04 11:03 51°15.586 2°40.043 -999 -999 -999 -999 -999
2007-07-04 11:04 51°15.569 2°40.045 -999 -999 -999 -999 -999
2007-07-04 11:05 51°15.551 2°40.049 -999 -999 -999 -999 -999
2007-07-04 11:06 51°15.533 2°40.051 -999 -999 -999 -999 -999
2007-07-04 11:07 51°15.516 2°40.054 -999 -999 -999 -999 -999
2007-07-04 11:08 51°15.501 2°40.057 -999 -999 -999 -999 -999
2007-07-04 11:09 51°15.494 2°40.057 -999 -999 -999 -999 -999
2007-07-04 11:10 51°15.531 2°40.023 -999 -999 -999 -999 -999
2007-07-04 11:11 51°15.602 2°39.918 -999 -999 -999 -999 -999
2007-07-04 11:12 51°15.668 2°39.887 -999 -999 -999 -999 -999
2007-07-04 11:13 51°15.688 2°39.95 -999 -999 -999 -999 -999
2007-07-04 11:14 51°15.704 2°40.004 -999 -999 -999 -999 -999
2007-07-04 11:15 51°15.708 2°40.014 -999 -999 -999 -999 -999
2007-07-04 11:16 51°15.704 2°40.013 -999 -999 -999 -999 -999
2007-07-04 11:17 51°15.696 2°40.008 -999 -999 -999 -999 -999
2007-07-04 11:18 51°15.684 2°40.005 -999 -999 -999 -999 -999
2007-07-04 11:19 51°15.669 2°40.005 -999 -999 -999 -999 -999
2007-07-04 11:20 51°15.652 2°40.007 -999 -999 -999 -999 -999
2007-07-04 11:21 51°15.633 2°40.011 -999 -999 -999 -999 -999
2007-07-04 11:22 51°15.61 2°40.013 -999 -999 -999 -999 -999
2007-07-04 11:23 51°15.587 2°40.015 -999 -999 -999 -999 -999
2007-07-04 11:24 51°15.563 2°40.017 -999 -999 -999 -999 -999
2007-07-04 11:25 51°15.539 2°40.02 -999 -999 -999 -999 -999
2007-07-04 11:26 51°15.516 2°40.024 -999 -999 -999 -999 -999
2007-07-04 11:27 51°15.494 2°40.029 -999 -999 -999 -999 -999
2007-07-04 11:28 51°15.474 2°40.034 -999 -999 -999 -999 -999
2007-07-04 11:29 51°15.453 2°40.04 -999 -999 -999 -999 -999
2007-07-04 11:30 51°15.446 2°40.047 -999 -999 -999 -999 -999
2007-07-04 11:31 51°15.507 2°40.051 -999 -999 -999 -999 -999
2007-07-04 11:32 51°15.642 2°40.115 -999 -999 -999 -999 -999
2007-07-04 11:33 51°15.786 2°40.22 -999 -999 -999 -999 -999
2007-07-04 11:34 51°15.924 2°40.342 -999 -999 -999 -999 -999
2007-07-04 11:35 51°16.064 2°40.461 -999 -999 -999 -999 -999
2007-07-04 11:36 51°16.203 2°40.58 -999 -999 -999 -999 -999
2007-07-04 11:37 51°16.334 2°40.717 -999 -999 -999 -999 -999
2007-07-04 11:38 51°16.449 2°40.892 -999 -999 -999 -999 -999
2007-07-04 11:39 51°16.568 2°41.062 -999 -999 -999 -999 -999
2007-07-04 11:40 51°16.695 2°41.24 -999 -999 -999 -999 -999
2007-07-04 11:41 51°16.828 2°41.422 -999 -999 -999 -999 -999
2007-07-04 11:42 51°16.961 2°41.605 -999 -999 -999 -999 -999
2007-07-04 11:43 51°17.094 2°41.79 -999 -999 -999 -999 -999
2007-07-04 11:44 51°17.194 2°42.025 -999 -999 -999 -999 -999
2007-07-04 11:45 51°17.282 2°42.273 -999 -999 -999 -999 -999
2007-07-04 11:46 51°17.336 2°42.549 -999 -999 -999 -999 -999
2007-07-04 11:47 51°17.394 2°42.818 -999 -999 -999 -999 -999
2007-07-04 11:48 51°17.451 2°43.084 -999 -999 -999 -999 -999
2007-07-04 11:49 51°17.507 2°43.354 -999 -999 -999 -999 -999
2007-07-04 11:50 51°17.565 2°43.621 -999 -999 -999 -999 -999
2007-07-04 11:51 51°17.629 2°43.883 -999 -999 -999 -999 -999
2007-07-04 11:52 51°17.699 2°44.143 -999 -999 -999 -999 -999
2007-07-04 11:53 51°17.768 2°44.4 -999 -999 -999 -999 -999
2007-07-04 11:54 51°17.836 2°44.656 -999 -999 -999 -999 -999
2007-07-04 11:55 51°17.884 2°44.842 -999 -999 -999 -999 -999
2007-07-04 11:56 51°17.91 2°44.959 -999 -999 -999 -999 -999
2007-07-04 11:57 51°17.926 2°45.035 -999 -999 -999 -999 -999
2007-07-04 11:58 51°17.935 2°45.113 -999 -999 -999 -999 -999
2007-07-04 11:59 51°17.949 2°45.186 -999 -999 -999 -999 -999
2007-07-04 12:00 51°17.972 2°45.272 -999 -999 -999 -999 -999
2007-07-04 12:01 51°17.995 2°45.359 -999 -999 -999 -999 -999
2007-07-04 12:02 51°18.015 2°45.433 -999 -999 -999 -999 -999
2007-07-04 12:03 51°18.034 2°45.501 -999 -999 -999 -999 -999
2007-07-04 12:04 51°18.061 2°45.569 -999 -999 -999 -999 -999
2007-07-04 12:05 51°18.085 2°45.65 -999 -999 -999 -999 -999
2007-07-04 12:06 51°18.1 2°45.737 -999 -999 -999 -999 -999
2007-07-04 12:07 51°18.126 2°45.814 -999 -999 -999 -999 -999
2007-07-04 12:08 51°18.158 2°45.885 -999 -999 -999 -999 -999
2007-07-04 12:09 51°18.18 2°45.971 -999 -999 -999 -999 -999
2007-07-04 12:10 51°18.185 2°46.069 -999 -999 -999 -999 -999
2007-07-04 12:11 51°18.192 2°46.158 -999 -999 -999 -999 -999
2007-07-04 12:12 51°18.223 2°46.229 -999 -999 -999 -999 -999
2007-07-04 12:13 51°18.259 2°46.298 -999 -999 -999 -999 -999
2007-07-04 12:14 51°18.295 2°46.368 -999 -999 -999 -999 -999
2007-07-04 12:15 51°18.328 2°46.445 -999 -999 -999 -999 -999
2007-07-04 12:16 51°18.363 2°46.515 -999 -999 -999 -999 -999
2007-07-04 12:17 51°18.403 2°46.57 -999 -999 -999 -999 -999
2007-07-04 12:18 51°18.436 2°46.639 -999 -999 -999 -999 -999
2007-07-04 12:19 51°18.464 2°46.722 -999 -999 -999 -999 -999
2007-07-04 12:20 51°18.495 2°46.8 -999 -999 -999 -999 -999
2007-07-04 12:21 51°18.523 2°46.872 -999 -999 -999 -999 -999
2007-07-04 12:22 51°18.541 2°46.951 -999 -999 -999 -999 -999
2007-07-04 12:23 51°18.552 2°47.036 -999 -999 -999 -999 -999
2007-07-04 12:24 51°18.568 2°47.114 -999 -999 -999 -999 -999
2007-07-04 12:25 51°18.591 2°47.185 -999 -999 -999 -999 -999
2007-07-04 12:26 51°18.619 2°47.251 -999 -999 -999 -999 -999
2007-07-04 12:27 51°18.651 2°47.308 -999 -999 -999 -999 -999
2007-07-04 12:28 51°18.676 2°47.372 -999 -999 -999 -999 -999
2007-07-04 12:29 51°18.687 2°47.45 -999 -999 -999 -999 -999
2007-07-04 12:30 51°18.669 2°47.53 -999 -999 -999 -999 -999
2007-07-04 12:31 51°18.634 2°47.592 -999 -999 -999 -999 -999
2007-07-04 12:32 51°18.597 2°47.616 -999 -999 -999 -999 -999
2007-07-04 12:33 51°18.573 2°47.633 -999 -999 -999 -999 -999
2007-07-04 12:34 51°18.556 2°47.651 -999 -999 -999 -999 -999
2007-07-04 12:35 51°18.54 2°47.67 -999 -999 -999 -999 -999
2007-07-04 12:36 51°18.493 2°47.642 -999 -999 -999 -999 -999
2007-07-04 12:37 51°18.516 2°47.565 -999 -999 -999 -999 -999
2007-07-04 12:38 51°18.591 2°47.62 -999 -999 -999 -999 -999
2007-07-04 12:39 51°18.641 2°47.68 -999 -999 -999 -999 -999
2007-07-04 12:40 51°18.676 2°47.73 -999 -999 -999 -999 -999
2007-07-04 12:41 51°18.706 2°47.779 -999 -999 -999 -999 -999
2007-07-04 12:42 51°18.731 2°47.832 -999 -999 -999 -999 -999
2007-07-04 12:43 51°18.768 2°47.892 -999 -999 -999 -999 -999
2007-07-04 12:44 51°18.819 2°47.954 -999 -999 -999 -999 -999
2007-07-04 12:45 51°18.869 2°48.027 -999 -999 -999 -999 -999
2007-07-04 12:46 51°18.91 2°48.107 -999 -999 -999 -999 -999
2007-07-04 12:47 51°18.952 2°48.175 -999 -999 -999 -999 -999
2007-07-04 12:48 51°18.994 2°48.245 -999 -999 -999 -999 -999
2007-07-04 12:49 51°19.032 2°48.324 -999 -999 -999 -999 -999
2007-07-04 12:50 51°19.071 2°48.399 -999 -999 -999 -999 -999
2007-07-04 12:51 51°19.112 2°48.469 -999 -999 -999 -999 -999
2007-07-04 12:52 51°19.155 2°48.537 -999 -999 -999 -999 -999
2007-07-04 12:53 51°19.197 2°48.607 -999 -999 -999 -999 -999
2007-07-04 12:54 51°19.239 2°48.682 -999 -999 -999 -999 -999
2007-07-04 12:55 51°19.28 2°48.76 -999 -999 -999 -999 -999
2007-07-04 12:56 51°19.321 2°48.835 -999 -999 -999 -999 -999
2007-07-04 12:57 51°19.36 2°48.911 -999 -999 -999 -999 -999
2007-07-04 12:58 51°19.404 2°48.98 -999 -999 -999 -999 -999
2007-07-04 12:59 51°19.442 2°49.063 -999 -999 -999 -999 -999
2007-07-04 13:00 51°19.48 2°49.151 -999 -999 -999 -999 -999
2007-07-04 13:01 51°19.518 2°49.231 -999 -999 -999 -999 -999
2007-07-04 13:02 51°19.561 2°49.287 -999 -999 -999 -999 -999
2007-07-04 13:03 51°19.604 2°49.347 -999 -999 -999 -999 -999
2007-07-04 13:04 51°19.641 2°49.421 -999 -999 -999 -999 -999
2007-07-04 13:05 51°19.674 2°49.506 -999 -999 -999 -999 -999
2007-07-04 13:06 51°19.697 2°49.603 -999 -999 -999 -999 -999
2007-07-04 13:07 51°19.722 2°49.698 -999 -999 -999 -999 -999
2007-07-04 13:08 51°19.757 2°49.776 -999 -999 -999 -999 -999
2007-07-04 13:09 51°19.796 2°49.848 -999 -999 -999 -999 -999
2007-07-04 13:10 51°19.828 2°49.937 -999 -999 -999 -999 -999
2007-07-04 13:11 51°19.865 2°50.021 -999 -999 -999 -999 -999
2007-07-04 13:12 51°19.896 2°50.112 -999 -999 -999 -999 -999
2007-07-04 13:13 51°19.923 2°50.205 -999 -999 -999 -999 -999
2007-07-04 13:14 51°19.95 2°50.293 -999 -999 -999 -999 -999
2007-07-04 13:15 51°19.982 2°50.371 -999 -999 -999 -999 -999
2007-07-04 13:16 51°20.009 2°50.453 -999 -999 -999 -999 -999
2007-07-04 13:17 51°20.019 2°50.551 -999 -999 -999 -999 -999
2007-07-04 13:18 51°20.01 2°50.649 -999 -999 -999 -999 -999
2007-07-04 13:19 51°19.988 2°50.736 -999 -999 -999 -999 -999
2007-07-04 13:20 51°19.959 2°50.815 -999 -999 -999 -999 -999
2007-07-04 13:21 51°19.927 2°50.887 -999 -999 -999 -999 -999
2007-07-04 13:22 51°19.898 2°50.964 -999 -999 -999 -999 -999
2007-07-04 13:23 51°19.87 2°51.041 -999 -999 -999 -999 -999
2007-07-04 13:24 51°19.838 2°51.111 -999 -999 -999 -999 -999
2007-07-04 13:25 51°19.802 2°51.18 -999 -999 -999 -999 -999
2007-07-04 13:26 51°19.75 2°51.254 -999 -999 -999 -999 -999
2007-07-04 13:27 51°19.703 2°51.309 -999 -999 -999 -999 -999
2007-07-04 13:28 51°19.658 2°51.363 -999 -999 -999 -999 -999
2007-07-04 13:29 51°19.614 2°51.415 -999 -999 -999 -999 -999
2007-07-04 13:30 51°19.563 2°51.45 -999 -999 -999 -999 -999
2007-07-04 13:31 51°19.509 2°51.467 -999 -999 -999 -999 -999
2007-07-04 13:32 51°19.454 2°51.487 -999 -999 -999 -999 -999
2007-07-04 13:33 51°19.405 2°51.485 -999 -999 -999 -999 -999
2007-07-04 13:34 51°19.352 2°51.471 -999 -999 -999 -999 -999
2007-07-04 13:35 51°19.305 2°51.447 -999 -999 -999 -999 -999
2007-07-04 13:36 51°19.264 2°51.421 -999 -999 -999 -999 -999
2007-07-04 13:37 51°19.238 2°51.384 -999 -999 -999 -999 -999
2007-07-04 13:38 51°19.257 2°51.331 -999 -999 -999 -999 -999
2007-07-04 13:39 51°19.29 2°51.349 -999 -999 -999 -999 -999
2007-07-04 13:40 51°19.314 2°51.39 -999 -999 -999 -999 -999
2007-07-04 13:41 51°19.331 2°51.444 -999 -999 -999 -999 -999
2007-07-04 13:42 51°19.341 2°51.501 -999 -999 -999 -999 -999
2007-07-04 13:43 51°19.363 2°51.561 -999 -999 -999 -999 -999
2007-07-04 13:44 51°19.401 2°51.69 -999 -999 -999 -999 -999
2007-07-04 13:45 51°19.403 2°51.802 -999 -999 -999 -999 -999
2007-07-04 13:46 51°19.4 2°51.888 -999 -999 -999 -999 -999
2007-07-04 13:47 51°19.399 2°51.96 -999 -999 -999 -999 -999
2007-07-04 13:48 51°19.4 2°52.021 -999 -999 -999 -999 -999
2007-07-04 13:49 51°19.408 2°52.08 -999 -999 -999 -999 -999
2007-07-04 13:50 51°19.42 2°52.14 -999 -999 -999 -999 -999
2007-07-04 13:51 51°19.436 2°52.2 -999 -999 -999 -999 -999
2007-07-04 13:52 51°19.452 2°52.259 -999 -999 -999 -999 -999
2007-07-04 13:53 51°19.469 2°52.32 -999 -999 -999 -999 -999
2007-07-04 13:54 51°19.485 2°52.384 -999 -999 -999 -999 -999
2007-07-04 13:55 51°19.502 2°52.447 -999 -999 -999 -999 -999
2007-07-04 13:56 51°19.518 2°52.51 -999 -999 -999 -999 -999
2007-07-04 13:57 51°19.535 2°52.572 -999 -999 -999 -999 -999
2007-07-04 13:58 51°19.55 2°52.637 -999 -999 -999 -999 -999
2007-07-04 13:59 51°19.529 2°52.69 -999 -999 -999 -999 -999
2007-07-04 14:00 51°19.505 2°52.64 -999 -999 -999 -999 -999
2007-07-04 14:01 51°19.459 2°52.541 -999 -999 -999 -999 -999
2007-07-04 14:02 51°19.373 2°52.424 -999 -999 -999 -999 -999
2007-07-04 14:03 51°19.262 2°52.235 -999 -999 -999 -999 -999
2007-07-04 14:04 51°19.145 2°52.027 -999 -999 -999 -999 -999
2007-07-04 14:05 51°19.029 2°51.821 -999 -999 -999 -999 -999
2007-07-04 14:06 51°18.911 2°51.622 -999 -999 -999 -999 -999
2007-07-04 14:07 51°18.789 2°51.426 -999 -999 -999 -999 -999
2007-07-04 14:08 51°18.671 2°51.23 -999 -999 -999 -999 -999
2007-07-04 14:09 51°18.606 2°51.136 -999 -999 -999 -999 -999
2007-07-04 14:10 51°18.577 2°51.106 -999 -999 -999 -999 -999
2007-07-04 14:11 51°18.533 2°51.052 -999 -999 -999 -999 -999
2007-07-04 14:12 51°18.511 2°51.007 -999 -999 -999 -999 -999
2007-07-04 14:13 51°18.527 2°51.038 -999 -999 -999 -999 -999
2007-07-04 14:14 51°18.55 2°51.105 -999 -999 -999 -999 -999
2007-07-04 14:15 51°18.569 2°51.172 -999 -999 -999 -999 -999
2007-07-04 14:16 51°18.588 2°51.239 -999 -999 -999 -999 -999
2007-07-04 14:17 51°18.606 2°51.304 -999 -999 -999 -999 -999
2007-07-04 14:18 51°18.626 2°51.368 -999 -999 -999 -999 -999
2007-07-04 14:19 51°18.675 2°51.395 -999 -999 -999 -999 -999
2007-07-04 14:20 51°18.696 2°51.356 -999 -999 -999 -999 -999
2007-07-04 14:21 51°18.655 2°51.308 -999 -999 -999 -999 -999
2007-07-04 14:22 51°18.577 2°51.183 -999 -999 -999 -999 -999
2007-07-04 14:23 51°18.517 2°51.052 -999 -999 -999 -999 -999
2007-07-04 14:24 51°18.498 2°51.016 -999 -999 -999 -999 -999
2007-07-04 14:25 51°18.503 2°51.024 -999 -999 -999 -999 -999
2007-07-04 14:26 51°18.502 2°51.048 -999 -999 -999 -999 -999
2007-07-04 14:27 51°18.496 2°51.063 -999 -999 -999 -999 -999
2007-07-04 14:28 51°18.485 2°51.076 -999 -999 -999 -999 -999
2007-07-04 14:29 51°18.48 2°51.096 -999 -999 -999 -999 -999
2007-07-04 14:30 51°18.472 2°51.106 -999 -999 -999 -999 -999
2007-07-04 14:31 51°18.46 2°51.103 -999 -999 -999 -999 -999
2007-07-04 14:32 51°18.449 2°51.101 -999 -999 -999 -999 -999
2007-07-04 14:33 51°18.442 2°51.104 -999 -999 -999 -999 -999
2007-07-04 14:34 51°18.44 2°51.135 -999 -999 -999 -999 -999
2007-07-04 14:35 51°18.441 2°51.173 -999 -999 -999 -999 -999
2007-07-04 14:36 51°18.446 2°51.2 -999 -999 -999 -999 -999
2007-07-04 14:37 51°18.45 2°51.236 -999 -999 -999 -999 -999
2007-07-04 14:38 51°18.455 2°51.276 -999 -999 -999 -999 -999
2007-07-04 14:39 51°18.459 2°51.306 -999 -999 -999 -999 -999
2007-07-04 14:40 51°18.464 2°51.324 -999 -999 -999 -999 -999
2007-07-04 14:41 51°18.468 2°51.346 -999 -999 -999 -999 -999
2007-07-04 14:42 51°18.468 2°51.375 -999 -999 -999 -999 -999
2007-07-04 14:43 51°18.457 2°51.386 -999 -999 -999 -999 -999
2007-07-04 14:44 51°18.444 2°51.389 -999 -999 -999 -999 -999
2007-07-04 14:45 51°18.438 2°51.409 -999 -999 -999 -999 -999
2007-07-04 14:46 51°18.435 2°51.425 -999 -999 -999 -999 -999
2007-07-04 14:47 51°18.436 2°51.432 -999 -999 -999 -999 -999
2007-07-04 14:48 51°18.429 2°51.446 -999 -999 -999 -999 -999
2007-07-04 14:49 51°18.396 2°51.461 -999 -999 -999 -999 -999
2007-07-04 14:50 51°18.293 2°51.523 -999 -999 -999 -999 -999
2007-07-04 14:51 51°18.172 2°51.616 -999 -999 -999 -999 -999
2007-07-04 14:52 51°18.027 2°51.768 -999 -999 -999 -999 -999
2007-07-04 14:53 51°17.861 2°51.896 -999 -999 -999 -999 -999
2007-07-04 14:54 51°17.68 2°52.029 -999 -999 -999 -999 -999
2007-07-04 14:55 51°17.496 2°52.161 -999 -999 -999 -999 -999
2007-07-04 14:56 51°17.311 2°52.292 -999 -999 -999 -999 -999
2007-07-04 14:57 51°17.126 2°52.408 -999 -999 -999 -999 -999
2007-07-04 14:58 51°16.938 2°52.503 -999 -999 -999 -999 -999
2007-07-04 14:59 51°16.749 2°52.598 -999 -999 -999 -999 -999
2007-07-04 15:00 51°16.561 2°52.703 -999 -999 -999 -999 -999
2007-07-04 15:01 51°16.372 2°52.807 -999 -999 -999 -999 -999
2007-07-04 15:02 51°16.184 2°52.923 -999 -999 -999 -999 -999
2007-07-04 15:03 51°15.997 2°53.056 -999 -999 -999 -999 -999
2007-07-04 15:04 51°15.812 2°53.197 -999 -999 -999 -999 -999
2007-07-04 15:05 51°15.627 2°53.338 -999 -999 -999 -999 -999
2007-07-04 15:06 51°15.44 2°53.474 -999 -999 -999 -999 -999
2007-07-04 15:07 51°15.255 2°53.615 -999 -999 -999 -999 -999
2007-07-04 15:08 51°15.072 2°53.769 -999 -999 -999 -999 -999
2007-07-04 15:09 51°14.906 2°53.976 -999 -999 -999 -999 -999
2007-07-04 15:10 51°14.757 2°54.226 -999 -999 -999 -999 -999
2007-07-04 15:11 51°14.622 2°54.506 -999 -999 -999 -999 -999
2007-07-04 15:12 51°14.489 2°54.789 -999 -999 -999 -999 -999
2007-07-04 15:13 51°14.365 2°55.091 -999 -999 -999 -999 -999
2007-07-04 15:14 51°14.215 2°55.332 -999 -999 -999 -999 -999
2007-07-04 15:15 51°14.077 2°55.448 -999 -999 -999 -999 -999
2007-07-04 15:16 51°13.972 2°55.524 -999 -999 -999 -999 -999
2007-07-04 15:17 51°13.874 2°55.598 -999 -999 -999 -999 -999
2007-07-04 15:18 51°13.768 2°55.677 -999 -999 -999 -999 -999
2007-07-04 15:19 51°13.7 2°55.798 -999 -999 -999 -999 -999
2007-07-04 15:20 51°13.654 2°55.906 -999 -999 -999 -999 -999
2007-07-04 15:21 51°13.617 2°56.003 -999 -999 -999 -999 -999
2007-07-04 15:22 51°13.602 2°56.076 -999 -999 -999 -999 -999